createdAt,value
2022-12-01T00:01:26.322Z,18.40
2022-12-01T00:03:54.644Z,22.50
2022-12-01T00:06:22.126Z,20.35
2022-12-01T00:09:12.931Z,20.20
2022-12-01T00:11:42.682Z,15.43
2022-12-01T00:14:10.002Z,24.25
2022-12-01T00:16:37.310Z,17.30
2022-12-01T00:19:05.969Z,18.75
2022-12-01T00:21:34.032Z,24.20
2022-12-01T00:24:02.501Z,19.17
2022-12-01T00:26:30.406Z,21.58
2022-12-01T00:28:59.631Z,16.50
2022-12-01T00:31:27.072Z,18.98
2022-12-01T00:33:54.740Z,18.45
2022-12-01T00:36:23.188Z,19.63
2022-12-01T00:38:57.953Z,18.55
2022-12-01T00:41:26.528Z,18.63
2022-12-01T00:43:54.037Z,15.88
2022-12-01T00:46:21.861Z,16.52
2022-12-01T00:48:49.590Z,16.30
2022-12-01T00:51:16.947Z,17.77
2022-12-01T00:53:44.403Z,15.90
2022-12-01T00:56:11.785Z,17.00
2022-12-01T00:58:39.167Z,23.85
2022-12-01T01:01:06.737Z,30.48
2022-12-01T01:03:35.359Z,18.40
2022-12-01T01:06:11.536Z,18.13
2022-12-01T01:08:39.573Z,18.95
2022-12-01T01:11:07.447Z,18.58
2022-12-01T01:13:36.073Z,17.48
2022-12-01T01:16:08.272Z,19.48
2022-12-01T01:18:36.658Z,19.15
2022-12-01T01:21:08.129Z,16.70
2022-12-01T01:23:38.596Z,29.80
2022-12-01T01:26:16.215Z,35.22
2022-12-01T01:28:45.156Z,24.35
2022-12-01T01:31:15.858Z,37.40
2022-12-01T01:36:11.421Z,22.13
2022-12-01T01:38:39.619Z,16.95
2022-12-01T01:41:07.652Z,18.55
2022-12-01T01:43:48.076Z,14.93
2022-12-01T01:46:23.183Z,17.40
2022-12-01T01:49:02.078Z,16.45
2022-12-01T01:51:39.193Z,16.23
2022-12-01T01:54:15.829Z,13.45
2022-12-01T01:56:45.631Z,17.75
2022-12-01T01:59:18.353Z,24.77
2022-12-01T02:01:49.140Z,27.15
2022-12-01T02:06:43.522Z,16.25
2022-12-01T02:09:12.968Z,15.70
2022-12-01T02:11:49.031Z,18.48
2022-12-01T02:14:51.613Z,14.95
2022-12-01T02:17:44.705Z,13.48
2022-12-01T02:20:39.967Z,16.77
2022-12-01T02:23:29.058Z,18.75
2022-12-01T02:26:05.373Z,11.93
2022-12-01T02:28:54.612Z,20.88
2022-12-01T02:31:36.153Z,19.92
2022-12-01T02:34:19.129Z,11.52
2022-12-01T02:36:49.085Z,18.23
2022-12-01T02:39:30.461Z,15.45
2022-12-01T02:42:39.390Z,16.90
2022-12-01T02:45:15.123Z,17.98
2022-12-01T02:47:44.333Z,12.48
2022-12-01T02:50:13.452Z,17.27
2022-12-01T02:52:41.703Z,17.95
2022-12-01T02:55:09.922Z,21.13
2022-12-01T02:57:37.165Z,18.20
2022-12-01T03:00:06.853Z,16.30
2022-12-01T03:02:50.738Z,14.25
2022-12-01T03:05:54.075Z,15.98
2022-12-01T03:08:26.940Z,12.82
2022-12-01T03:10:54.525Z,15.30
2022-12-01T03:13:46.895Z,16.55
2022-12-01T03:16:38.001Z,14.93
2022-12-01T03:19:41.828Z,19.05
2022-12-01T03:22:11.255Z,14.50
2022-12-01T03:24:41.387Z,17.23
2022-12-01T03:27:11.729Z,15.75
2022-12-01T03:29:49.853Z,15.40
2022-12-01T03:32:22.746Z,14.77
2022-12-01T03:35:06.379Z,15.93
2022-12-01T03:37:58.017Z,11.60
2022-12-01T03:40:28.449Z,15.32
2022-12-01T03:43:02.030Z,14.60
2022-12-01T03:45:58.576Z,12.95
2022-12-01T03:48:27.051Z,14.38
2022-12-01T03:51:10.060Z,16.08
2022-12-01T03:54:03.278Z,15.95
2022-12-01T03:56:43.986Z,18.52
2022-12-01T03:59:13.095Z,14.85
2022-12-01T04:01:40.471Z,19.35
2022-12-01T04:04:11.901Z,17.83
2022-12-01T04:06:42.706Z,15.85
2022-12-01T04:09:10.204Z,17.08
2022-12-01T04:11:55.869Z,14.35
2022-12-01T04:14:23.259Z,15.82
2022-12-01T04:16:51.510Z,16.98
2022-12-01T04:19:18.932Z,19.70
2022-12-01T04:21:46.267Z,16.65
2022-12-01T04:24:14.233Z,20.42
2022-12-01T04:26:43.026Z,20.10
2022-12-01T04:29:12.412Z,14.65
2022-12-01T04:31:39.853Z,15.18
2022-12-01T04:34:07.573Z,19.55
2022-12-01T04:36:36.095Z,17.63
2022-12-01T04:39:05.074Z,18.50
2022-12-01T04:41:32.380Z,14.63
2022-12-01T04:43:59.767Z,18.40
2022-12-01T04:46:27.935Z,18.75
2022-12-01T04:48:55.391Z,17.65
2022-12-01T04:51:22.894Z,16.02
2022-12-01T04:53:50.924Z,17.20
2022-12-01T04:56:19.070Z,13.60
2022-12-01T04:58:46.622Z,13.57
2022-12-01T05:01:17.281Z,14.60
2022-12-01T05:03:49.478Z,16.00
2022-12-01T05:06:19.921Z,17.35
2022-12-01T05:08:47.537Z,14.35
2022-12-01T05:11:16.267Z,15.60
2022-12-01T05:13:45.897Z,16.77
2022-12-01T05:16:16.947Z,22.48
2022-12-01T05:19:13.943Z,17.88
2022-12-01T05:21:42.873Z,23.45
2022-12-01T05:24:11.578Z,18.77
2022-12-01T05:26:39.608Z,17.88
2022-12-01T05:29:07.968Z,15.70
2022-12-01T05:31:39.887Z,19.73
2022-12-01T05:34:08.199Z,16.85
2022-12-01T05:36:36.637Z,19.65
2022-12-01T05:39:04.622Z,24.65
2022-12-01T05:41:32.670Z,18.35
2022-12-01T05:44:01.213Z,33.55
2022-12-01T05:46:30.558Z,16.23
2022-12-01T05:48:58.501Z,14.68
2022-12-01T05:51:26.922Z,16.45
2022-12-01T05:53:54.224Z,19.23
2022-12-01T05:56:22.092Z,16.00
2022-12-01T05:58:49.379Z,18.15
2022-12-01T06:01:16.645Z,13.63
2022-12-01T06:03:44.031Z,18.92
2022-12-01T06:06:11.636Z,14.10
2022-12-01T06:08:38.821Z,15.98
2022-12-01T06:11:06.581Z,16.63
2022-12-01T06:13:34.781Z,17.95
2022-12-01T06:16:04.501Z,21.77
2022-12-01T06:18:34.705Z,21.90
2022-12-01T06:21:02.633Z,30.77
2022-12-01T06:23:30.931Z,26.40
2022-12-01T06:25:59.604Z,28.08
2022-12-01T06:28:27.208Z,21.42
2022-12-01T06:31:02.535Z,17.38
2022-12-01T06:33:31.934Z,16.85
2022-12-01T06:36:00.061Z,12.23
2022-12-01T06:38:31.431Z,15.13
2022-12-01T06:40:59.361Z,16.92
2022-12-01T06:43:27.335Z,20.08
2022-12-01T06:46:01.552Z,25.75
2022-12-01T06:48:31.564Z,25.67
2022-12-01T06:51:00.087Z,21.50
2022-12-01T06:53:28.925Z,48.38
2022-12-01T06:56:04.918Z,57.78
2022-12-01T06:58:32.757Z,50.63
2022-12-01T07:01:01.570Z,54.05
2022-12-01T07:03:29.859Z,44.47
2022-12-01T07:05:59.640Z,49.97
2022-12-01T07:08:29.481Z,56.43
2022-12-01T07:11:05.303Z,71.47
2022-12-01T07:13:33.919Z,63.58
2022-12-01T07:16:03.487Z,45.38
2022-12-01T07:18:31.573Z,55.40
2022-12-01T07:21:04.089Z,54.95
2022-12-01T07:23:31.509Z,35.88
2022-12-01T07:26:04.493Z,33.70
2022-12-01T07:28:32.125Z,30.15
2022-12-01T07:31:11.550Z,25.92
2022-12-01T07:33:39.836Z,30.50
2022-12-01T07:36:08.529Z,27.30
2022-12-01T07:38:36.536Z,22.63
2022-12-01T07:41:20.930Z,26.35
2022-12-01T07:43:51.117Z,25.65
2022-12-01T07:46:23.953Z,29.05
2022-12-01T07:48:52.867Z,28.05
2022-12-01T07:51:20.989Z,28.45
2022-12-01T07:53:49.611Z,26.88
2022-12-01T07:56:19.114Z,28.30
2022-12-01T07:58:47.622Z,22.77
2022-12-01T08:01:18.320Z,29.65
2022-12-01T08:06:14.391Z,40.50
2022-12-01T08:08:42.346Z,41.03
2022-12-01T08:11:18.075Z,33.13
2022-12-01T08:13:46.054Z,31.50
2022-12-01T08:16:15.512Z,25.67
2022-12-01T08:18:43.888Z,46.75
2022-12-01T08:21:16.753Z,29.50
2022-12-01T08:23:44.850Z,32.95
2022-12-01T08:26:18.611Z,27.65
2022-12-01T08:28:46.983Z,28.25
2022-12-01T08:31:20.906Z,24.05
2022-12-01T08:33:50.747Z,30.40
2022-12-01T08:36:19.187Z,92.45
2022-12-01T08:38:48.644Z,71.25
2022-12-01T08:41:16.649Z,152.07
2022-12-01T08:44:01.282Z,93.70
2022-12-01T08:46:34.558Z,146.82
2022-12-01T08:49:04.280Z,73.40
2022-12-01T08:51:32.537Z,44.45
2022-12-01T08:54:00.504Z,49.65
2022-12-01T08:56:37.072Z,55.67
2022-12-01T08:59:04.884Z,54.38
2022-12-01T09:01:33.274Z,51.83
2022-12-01T09:04:06.659Z,49.67
2022-12-01T09:06:45.460Z,46.40
2022-12-01T09:09:29.739Z,39.92
2022-12-01T09:11:57.394Z,33.63
2022-12-01T09:14:24.710Z,60.42
2022-12-01T09:16:52.075Z,44.83
2022-12-01T09:19:24.704Z,45.30
2022-12-01T09:21:52.726Z,37.17
2022-12-01T09:24:20.080Z,30.40
2022-12-01T09:26:47.739Z,36.67
2022-12-01T09:29:17.118Z,33.15
2022-12-01T09:31:44.697Z,35.75
2022-12-01T09:34:17.182Z,35.88
2022-12-01T09:36:46.071Z,27.05
2022-12-01T09:39:20.728Z,28.75
2022-12-01T09:41:50.947Z,24.48
2022-12-01T09:44:35.706Z,23.60
2022-12-01T09:47:25.308Z,28.52
2022-12-01T09:50:10.067Z,17.67
2022-12-01T09:52:49.445Z,22.40
2022-12-01T09:55:19.717Z,21.15
2022-12-01T09:57:53.046Z,26.95
2022-12-01T10:00:24.886Z,26.70
2022-12-01T10:03:01.169Z,29.00
2022-12-01T10:05:38.830Z,23.25
2022-12-01T10:08:21.242Z,20.92
2022-12-01T10:10:57.838Z,31.73
2022-12-01T10:13:27.607Z,19.33
2022-12-01T10:15:57.288Z,19.13
2022-12-01T10:18:31.051Z,18.40
2022-12-01T10:21:14.618Z,21.50
2022-12-01T10:24:17.942Z,22.98
2022-12-01T10:27:01.744Z,20.80
2022-12-01T10:29:46.505Z,23.85
2022-12-01T10:32:32.683Z,25.10
2022-12-01T10:35:00.975Z,26.90
2022-12-01T10:37:30.851Z,20.60
2022-12-01T10:40:00.234Z,20.35
2022-12-01T10:42:36.692Z,18.27
2022-12-01T10:45:15.487Z,17.27
2022-12-01T10:48:18.126Z,18.50
2022-12-01T10:50:52.053Z,22.83
2022-12-01T10:53:32.372Z,26.05
2022-12-01T10:58:59.127Z,34.65
2022-12-01T11:01:35.849Z,26.27
2022-12-01T11:04:07.980Z,25.05
2022-12-01T11:06:35.976Z,29.00
2022-12-01T11:09:07.480Z,31.30
2022-12-01T11:11:40.823Z,34.85
2022-12-01T11:14:19.746Z,38.08
2022-12-01T11:16:50.435Z,32.28
2022-12-01T11:19:36.152Z,35.33
2022-12-01T11:22:24.030Z,31.73
2022-12-01T11:24:54.406Z,27.42
2022-12-01T11:29:54.957Z,34.38
2022-12-01T11:32:32.451Z,36.33
2022-12-01T11:35:11.528Z,50.42
2022-12-01T11:37:54.758Z,150.73
2022-12-01T11:40:36.605Z,83.88
2022-12-01T11:43:06.392Z,55.85
2022-12-01T11:45:44.060Z,55.40
2022-12-01T11:48:16.992Z,47.90
2022-12-01T11:51:00.285Z,46.90
2022-12-01T11:53:30.781Z,37.15
2022-12-01T11:56:18.818Z,42.05
2022-12-01T11:58:49.852Z,41.28
2022-12-01T12:01:42.359Z,37.67
2022-12-01T12:04:37.850Z,71.75
2022-12-01T12:07:42.577Z,64.38
2022-12-01T12:10:24.773Z,50.20
2022-12-01T12:13:16.707Z,61.88
2022-12-01T12:16:08.919Z,35.80
2022-12-01T12:19:06.564Z,79.35
2022-12-01T12:22:29.765Z,183.43
2022-12-01T12:25:08.961Z,72.88
2022-12-01T12:27:39.298Z,74.07
2022-12-01T12:30:30.633Z,83.80
2022-12-01T12:33:29.031Z,56.95
2022-12-01T12:36:14.964Z,48.80
2022-12-01T12:38:54.269Z,51.55
2022-12-01T12:41:33.456Z,30.50
2022-12-01T12:44:15.094Z,23.52
2022-12-01T12:47:14.357Z,23.10
2022-12-01T12:50:10.478Z,182.98
2022-12-01T12:52:45.599Z,63.40
2022-12-01T12:55:13.063Z,28.85
2022-12-01T12:58:27.265Z,52.47
2022-12-01T13:01:21.571Z,36.35
2022-12-01T13:03:59.904Z,28.40
2022-12-01T13:06:39.624Z,25.48
2022-12-01T13:09:18.171Z,18.30
2022-12-01T13:11:52.419Z,22.95
2022-12-01T13:14:41.000Z,29.05
2022-12-01T13:17:28.611Z,23.77
2022-12-01T13:19:55.941Z,22.02
2022-12-01T13:22:30.368Z,24.90
2022-12-01T13:24:57.903Z,58.25
2022-12-01T13:27:30.457Z,40.60
2022-12-01T13:29:58.335Z,22.40
2022-12-01T13:32:40.713Z,30.45
2022-12-01T13:35:30.223Z,28.67
2022-12-01T13:38:23.084Z,19.60
2022-12-01T13:41:13.848Z,25.30
2022-12-01T13:44:26.783Z,24.80
2022-12-01T13:47:05.878Z,26.38
2022-12-01T13:49:37.134Z,29.80
2022-12-01T13:52:23.092Z,28.98
2022-12-01T13:55:09.550Z,23.85
2022-12-01T13:58:07.276Z,24.13
2022-12-01T14:00:39.614Z,26.77
2022-12-01T14:03:19.511Z,24.88
2022-12-01T14:05:57.498Z,25.48
2022-12-01T14:08:30.848Z,26.00
2022-12-01T14:11:20.048Z,22.10
2022-12-01T14:13:53.938Z,26.60
2022-12-01T14:16:24.050Z,26.23
2022-12-01T14:18:55.783Z,22.92
2022-12-01T14:21:49.800Z,21.08
2022-12-01T14:24:42.147Z,20.45
2022-12-01T14:27:14.348Z,31.77
2022-12-01T14:29:43.352Z,38.28
2022-12-01T14:32:10.879Z,30.42
2022-12-01T14:34:39.565Z,29.73
2022-12-01T14:37:09.990Z,32.42
2022-12-01T14:39:56.561Z,26.55
2022-12-01T14:42:53.642Z,48.72
2022-12-01T14:45:50.857Z,29.77
2022-12-01T14:48:28.249Z,33.87
2022-12-01T14:51:12.609Z,27.70
2022-12-01T14:53:45.471Z,27.77
2022-12-01T14:56:20.556Z,27.58
2022-12-01T14:59:00.953Z,22.90
2022-12-01T15:01:37.632Z,23.05
2022-12-01T15:04:07.217Z,30.98
2022-12-01T15:06:37.227Z,41.13
2022-12-01T15:09:33.343Z,61.67
2022-12-01T15:12:07.745Z,49.65
2022-12-01T15:14:47.131Z,60.95
2022-12-01T15:17:37.471Z,45.65
2022-12-01T15:20:31.634Z,44.67
2022-12-01T15:23:01.055Z,41.58
2022-12-01T15:25:35.893Z,33.47
2022-12-01T15:28:12.931Z,30.90
2022-12-01T15:30:47.707Z,30.88
2022-12-01T15:33:26.944Z,22.75
2022-12-01T15:35:56.761Z,25.98
2022-12-01T15:38:31.239Z,24.92
2022-12-01T15:41:27.921Z,36.17
2022-12-01T15:44:05.972Z,79.57
2022-12-01T15:46:37.820Z,73.45
2022-12-01T15:49:16.425Z,226.65
2022-12-01T15:51:44.097Z,252.45
2022-12-01T15:54:30.036Z,76.00
2022-12-01T15:56:59.395Z,59.15
2022-12-01T15:59:35.038Z,44.92
2022-12-01T16:02:30.757Z,41.13
2022-12-01T16:05:18.324Z,38.85
2022-12-01T16:08:12.751Z,39.47
2022-12-01T16:10:37.602Z,39.25
2022-12-01T16:13:39.813Z,50.43
2022-12-01T16:16:27.505Z,67.45
2022-12-01T16:18:56.473Z,57.55
2022-12-01T16:21:24.845Z,78.05
2022-12-01T16:24:01.260Z,101.80
2022-12-01T16:26:29.710Z,47.75
2022-12-01T16:28:57.756Z,43.70
2022-12-01T16:31:26.997Z,43.22
2022-12-01T16:34:18.477Z,56.00
2022-12-01T16:36:51.345Z,61.10
2022-12-01T16:39:19.165Z,48.70
2022-12-01T16:41:48.108Z,39.00
2022-12-01T16:44:31.121Z,37.88
2022-12-01T16:46:58.673Z,28.05
2022-12-01T16:49:27.193Z,31.17
2022-12-01T16:51:56.479Z,38.60
2022-12-01T16:54:24.542Z,34.13
2022-12-01T16:56:51.749Z,31.20
2022-12-01T16:59:20.939Z,45.65
2022-12-01T17:01:48.388Z,46.42
2022-12-01T17:04:16.605Z,41.90
2022-12-01T17:06:44.326Z,51.63
2022-12-01T17:09:13.286Z,43.22
2022-12-01T17:11:41.649Z,48.67
2022-12-01T17:14:09.426Z,33.35
2022-12-01T17:16:38.803Z,32.58
2022-12-01T17:19:07.694Z,51.30
2022-12-01T17:21:35.005Z,81.82
2022-12-01T17:24:02.481Z,58.08
2022-12-01T17:26:29.792Z,53.65
2022-12-01T17:28:57.085Z,50.30
2022-12-01T17:31:24.598Z,168.25
2022-12-01T17:33:52.251Z,248.02
2022-12-01T17:36:19.857Z,64.45
2022-12-01T17:38:48.563Z,52.95
2022-12-01T17:41:18.270Z,51.47
2022-12-01T17:43:45.774Z,51.10
2022-12-01T17:46:14.940Z,52.45
2022-12-01T17:48:45.103Z,62.00
2022-12-01T17:51:14.516Z,58.00
2022-12-01T17:53:41.763Z,50.15
2022-12-01T17:56:11.726Z,51.40
2022-12-01T17:58:39.588Z,66.30
2022-12-01T18:01:16.443Z,50.97
2022-12-01T18:03:44.537Z,52.65
2022-12-01T18:06:12.774Z,86.22
2022-12-01T18:08:40.634Z,88.57
2022-12-01T18:11:10.564Z,74.85
2022-12-01T18:13:40.047Z,127.28
2022-12-01T18:16:09.336Z,188.35
2022-12-01T18:18:37.704Z,81.05
2022-12-01T18:21:10.154Z,64.60
2022-12-01T18:23:38.433Z,68.38
2022-12-01T18:26:14.114Z,103.55
2022-12-01T18:28:44.020Z,85.50
2022-12-01T18:31:14.466Z,52.85
2022-12-01T18:33:43.674Z,46.08
2022-12-01T18:36:21.075Z,41.17
2022-12-01T18:38:50.229Z,47.55
2022-12-01T18:41:18.208Z,45.55
2022-12-01T18:43:45.701Z,42.47
2022-12-01T18:46:14.968Z,43.38
2022-12-01T18:48:47.155Z,33.17
2022-12-01T18:51:14.876Z,37.60
2022-12-01T18:53:42.652Z,42.30
2022-12-01T18:56:12.108Z,42.97
2022-12-01T18:58:40.769Z,55.97
2022-12-01T19:01:22.530Z,60.33
2022-12-01T19:03:51.179Z,43.92
2022-12-01T19:06:19.267Z,49.03
2022-12-01T19:08:47.817Z,43.38
2022-12-01T19:11:15.655Z,49.72
2022-12-01T19:13:43.065Z,47.40
2022-12-01T19:16:13.567Z,36.35
2022-12-01T19:18:42.152Z,46.65
2022-12-01T19:21:11.558Z,47.53
2022-12-01T19:23:40.695Z,45.28
2022-12-01T19:26:11.363Z,38.28
2022-12-01T19:28:40.808Z,34.95
2022-12-01T19:31:24.180Z,38.42
2022-12-01T19:33:53.178Z,35.05
2022-12-01T19:36:23.199Z,35.55
2022-12-01T19:38:51.118Z,37.80
2022-12-01T19:41:25.332Z,44.50
2022-12-01T19:43:53.765Z,39.70
2022-12-01T19:46:24.162Z,40.33
2022-12-01T19:48:57.854Z,49.35
2022-12-01T19:51:28.490Z,35.13
2022-12-01T19:53:56.137Z,26.17
2022-12-01T19:56:24.565Z,23.55
2022-12-01T19:58:52.699Z,23.15
2022-12-01T20:01:21.080Z,29.60
2022-12-01T20:03:52.202Z,26.52
2022-12-01T20:06:24.839Z,31.45
2022-12-01T20:08:54.650Z,23.35
2022-12-01T20:11:23.277Z,21.53
2022-12-01T20:13:51.973Z,23.50
2022-12-01T20:16:25.397Z,31.10
2022-12-01T20:18:53.504Z,44.30
2022-12-01T20:21:25.707Z,108.95
2022-12-01T20:23:59.482Z,94.05
2022-12-01T20:26:36.689Z,60.80
2022-12-01T20:29:07.757Z,47.90
2022-12-01T20:31:36.109Z,50.72
2022-12-01T20:34:07.952Z,65.60
2022-12-01T20:36:36.674Z,69.32
2022-12-01T20:39:05.325Z,45.65
2022-12-01T20:41:33.160Z,38.40
2022-12-01T20:44:05.523Z,44.38
2022-12-01T20:46:36.672Z,52.88
2022-12-01T20:49:04.747Z,47.72
2022-12-01T20:51:35.498Z,45.30
2022-12-01T20:54:27.199Z,26.42
2022-12-01T20:56:53.770Z,29.80
2022-12-01T20:59:21.691Z,37.08
2022-12-01T21:01:49.094Z,49.95
2022-12-01T21:04:17.758Z,50.42
2022-12-01T21:06:45.713Z,37.95
2022-12-01T21:09:13.431Z,28.35
2022-12-01T21:12:08.023Z,42.97
2022-12-01T21:15:12.591Z,39.85
2022-12-01T21:17:47.458Z,37.97
2022-12-01T21:20:25.336Z,40.15
2022-12-01T21:22:53.819Z,33.85
2022-12-01T21:25:25.734Z,35.20
2022-12-01T21:27:57.787Z,40.40
2022-12-01T21:30:26.586Z,46.92
2022-12-01T21:32:55.690Z,45.63
2022-12-01T21:35:25.126Z,42.90
2022-12-01T21:38:00.678Z,41.35
2022-12-01T21:40:28.687Z,39.90
2022-12-01T21:42:58.671Z,32.58
2022-12-01T21:45:34.990Z,37.25
2022-12-01T21:48:18.248Z,42.47
2022-12-01T21:50:50.913Z,42.42
2022-12-01T21:53:21.606Z,120.38
2022-12-01T21:55:49.479Z,144.73
2022-12-01T21:58:29.784Z,48.67
2022-12-01T22:00:59.343Z,44.90
2022-12-01T22:03:32.527Z,36.08
2022-12-01T22:06:29.717Z,35.83
2022-12-01T22:09:02.846Z,38.22
2022-12-01T22:11:31.157Z,43.55
2022-12-01T22:14:28.083Z,37.20
2022-12-01T22:17:07.993Z,48.33
2022-12-01T22:19:39.475Z,47.50
2022-12-01T22:22:09.894Z,43.13
2022-12-01T22:24:41.357Z,44.72
2022-12-01T22:27:29.476Z,41.65
2022-12-01T22:30:09.982Z,34.58
2022-12-01T22:32:57.242Z,58.53
2022-12-01T22:35:36.898Z,46.35
2022-12-01T22:38:09.143Z,51.35
2022-12-01T22:40:48.492Z,41.33
2022-12-01T22:43:21.788Z,35.72
2022-12-01T22:46:19.368Z,48.47
2022-12-01T22:49:06.989Z,47.08
2022-12-01T22:51:46.614Z,43.72
2022-12-01T22:54:16.558Z,42.88
2022-12-01T22:56:49.966Z,44.33
2022-12-01T22:59:39.393Z,94.22
2022-12-01T23:02:31.150Z,104.93
2022-12-01T23:05:24.551Z,68.18
2022-12-01T23:07:53.568Z,47.03
2022-12-01T23:10:27.346Z,48.95
2022-12-01T23:12:57.302Z,38.42
2022-12-01T23:15:50.496Z,39.17
2022-12-01T23:18:20.311Z,38.13
2022-12-01T23:20:59.843Z,40.72
2022-12-01T23:23:32.178Z,42.40
2022-12-01T23:26:02.438Z,48.78
2022-12-01T23:28:36.761Z,82.28
2022-12-01T23:31:05.326Z,58.72
2022-12-01T23:33:34.608Z,48.10
2022-12-01T23:36:12.152Z,42.25
2022-12-01T23:38:42.825Z,39.08
2022-12-01T23:41:45.879Z,29.00
2022-12-01T23:44:34.153Z,31.73
2022-12-01T23:47:01.948Z,30.30
2022-12-01T23:49:35.039Z,30.60
2022-12-01T23:52:04.057Z,49.92
2022-12-01T23:54:35.580Z,80.85
2022-12-01T23:57:10.953Z,58.45
2022-12-01T23:59:41.105Z,50.40
